Time;durP1;ratioP1;P1;durP2;ratioP2;P2;SDS_P1;SDS_P2;PMS_P1;PMS_P2;Temp;Humidity;BMP_temperature;BMP_pressure;BME280_temperature;BME280_humidity;BME280_pressure;Samples;Min_cycle;Max_cycle;Signal;HPM_P1;HPM_P2
2021/06/04 00:00:31;;;;;;;34.92;32.72;;;15.50;99.90;;;;;;5013882;28;20467;-54
2021/06/04 00:03:01;;;;;;;35.42;33.15;;;15.60;99.90;;;;;;5013537;28;20026;-56
2021/06/04 00:05:33;;;;;;;36.15;33.60;;;15.70;99.90;;;;;;5013280;28;20048;-55
2021/06/04 00:08:01;;;;;;;35.10;33.10;;;15.80;99.90;;;;;;5013576;28;20117;-56
2021/06/04 00:10:38;;;;;;;35.95;33.78;;;15.80;99.90;;;;;;5013714;28;20419;-54
2021/06/04 00:13:31;;;;;;;33.58;31.55;;;15.70;99.90;;;;;;5013487;28;20022;-54
2021/06/04 00:16:07;;;;;;;33.95;32.05;;;15.70;99.90;;;;;;5013479;28;20085;-57
2021/06/04 00:18:37;;;;;;;34.55;32.65;;;15.80;99.90;;;;;;5012959;28;20044;-57
2021/06/04 00:21:07;;;;;;;33.92;31.80;;;15.90;99.90;;;;;;5013498;28;20054;-54
2021/06/04 00:23:35;;;;;;;34.08;32.05;;;16.00;99.90;;;;;;5013672;28;20033;-58
2021/06/04 00:26:05;;;;;;;32.95;31.05;;;16.00;99.90;;;;;;5013264;28;20030;-57
2021/06/04 00:28:32;;;;;;;31.65;29.85;;;16.00;99.90;;;;;;5013352;28;20081;-55
2021/06/04 00:31:00;;;;;;;32.60;30.70;;;16.00;99.90;;;;;;5013380;28;20018;-55
2021/06/04 00:33:28;;;;;;;32.92;30.95;;;16.20;99.90;;;;;;5013370;28;20030;-58
2021/06/04 00:35:56;;;;;;;31.38;29.45;;;16.10;99.90;;;;;;5013198;28;20030;-53
2021/06/04 00:38:23;;;;;;;31.55;29.70;;;16.30;99.90;;;;;;5013255;28;20455;-55
2021/06/04 00:40:54;;;;;;;30.05;27.95;;;16.30;99.90;;;;;;5013174;28;20552;-58
2021/06/04 00:43:22;;;;;;;28.40;26.85;;;16.30;99.90;;;;;;5013354;28;20071;-53
2021/06/04 00:45:53;;;;;;;29.27;27.42;;;16.40;99.90;;;;;;5013061;28;20072;-53
2021/06/04 00:48:21;;;;;;;27.50;26.00;;;16.40;99.90;;;;;;5013033;28;20034;-53
2021/06/04 00:50:57;;;;;;;29.33;27.73;;;16.50;99.90;;;;;;5013092;28;20022;-55
2021/06/04 00:53:26;;;;;;;27.67;26.08;;;16.80;99.90;;;;;;5013342;28;20018;-55
2021/06/04 00:55:55;;;;;;;27.90;26.23;;;17.00;99.90;;;;;;5012858;28;20037;-53
2021/06/04 00:58:28;;;;;;;28.70;26.90;;;17.10;99.90;;;;;;5015339;28;20419;-55
2021/06/04 01:00:58;;;;;;;27.80;26.27;;;17.10;99.90;;;;;;5016748;28;20093;-54
2021/06/04 01:03:30;;;;;;;28.23;26.52;;;17.10;99.90;;;;;;5017155;28;20077;-55
2021/06/04 01:06:30;;;;;;;27.15;25.55;;;17.20;99.90;;;;;;5016697;28;20042;-57
2021/06/04 01:09:28;;;;;;;27.08;25.67;;;17.40;99.90;;;;;;5006104;28;20034;-56
2021/06/04 01:12:07;;;;;;;27.75;25.90;;;17.30;99.90;;;;;;5016664;28;20483;-54
2021/06/04 01:15:01;;;;;;;27.02;25.38;;;17.60;99.90;;;;;;5016656;28;20426;-53
2021/06/04 01:17:38;;;;;;;27.23;25.63;;;17.80;99.90;;;;;;5016669;28;20053;-49
2021/06/04 01:20:18;;;;;;;26.98;25.48;;;17.90;99.90;;;;;;5016452;28;20045;-49
2021/06/04 01:23:04;;;;;;;23.75;22.45;;;18.10;99.90;;;;;;4998978;28;20033;-55
2021/06/04 01:25:53;;;;;;;23.52;22.23;;;17.70;99.90;;;;;;5016336;28;20038;-54
2021/06/04 01:28:30;;;;;;;23.38;22.17;;;17.70;99.90;;;;;;5016496;28;20048;-52
2021/06/04 01:31:30;;;;;;;23.10;21.70;;;17.90;99.90;;;;;;5016402;28;20025;-54
2021/06/04 01:34:09;;;;;;;21.98;20.95;;;18.10;99.90;;;;;;4983304;28;20062;-50
2021/06/04 01:37:00;;;;;;;20.75;19.58;;;18.30;99.90;;;;;;4998632;28;20030;-49
2021/06/04 01:39:32;;;;;;;19.40;18.45;;;18.30;99.90;;;;;;5003030;28;20037;-48
2021/06/04 01:42:01;;;;;;;18.75;17.67;;;18.30;99.90;;;;;;5015982;28;20042;-52
2021/06/04 01:44:52;;;;;;;17.75;16.95;;;18.50;99.90;;;;;;5016114;28;20076;-52
2021/06/04 01:47:28;;;;;;;16.17;15.45;;;18.60;99.90;;;;;;5015582;28;20041;-50
2021/06/04 01:49:58;;;;;;;14.13;13.60;;;18.70;99.90;;;;;;5015883;28;20033;-52
2021/06/04 01:52:31;;;;;;;13.55;12.95;;;18.70;99.90;;;;;;5015982;28;20018;-51
2021/06/04 01:55:16;;;;;;;13.70;13.00;;;18.90;99.90;;;;;;5015977;28;20109;-51
2021/06/04 01:58:01;;;;;;;11.98;11.48;;;19.10;99.90;;;;;;5015882;28;20081;-51
2021/06/04 02:00:51;;;;;;;8.38;7.97;;;19.20;99.90;;;;;;5015908;28;20034;-50
2021/06/04 02:03:21;;;;;;;7.43;7.13;;;19.10;99.90;;;;;;5015825;28;20022;-50
2021/06/04 02:05:50;;;;;;;6.57;6.38;;;19.40;99.90;;;;;;5015662;28;20085;-47
2021/06/04 02:08:26;;;;;;;6.70;6.30;;;19.60;99.30;;;;;;4998095;28;20475;-48
2021/06/04 02:10:54;;;;;;;6.40;6.05;;;19.40;98.10;;;;;;5015243;28;20136;-47
2021/06/04 02:13:23;;;;;;;6.13;5.82;;;19.40;98.50;;;;;;5015881;28;20022;-52
2021/06/04 02:16:12;;;;;;;5.40;5.20;;;19.80;98.30;;;;;;5015241;28;20037;-50
2021/06/04 02:19:05;;;;;;;5.70;5.40;;;19.60;97.20;;;;;;5015267;28;20038;-52
2021/06/04 02:22:02;;;;;;;5.30;5.10;;;19.70;98.00;;;;;;5015323;28;20447;-46
2021/06/04 02:24:38;;;;;;;5.30;5.10;;;19.60;97.70;;;;;;5007467;28;20165;-51
2021/06/04 02:27:21;;;;;;;5.70;5.30;;;19.70;98.20;;;;;;5015301;28;20033;-47
2021/06/04 02:29:54;;;;;;;5.65;5.35;;;19.80;96.80;;;;;;5015144;28;20034;-51
2021/06/04 02:32:29;;;;;;;5.97;5.68;;;19.80;96.80;;;;;;5015460;28;20080;-48
2021/06/04 02:35:09;;;;;;;5.60;5.40;;;20.00;97.50;;;;;;5015023;28;20040;-48
2021/06/04 02:37:52;;;;;;;5.50;5.30;;;20.00;96.60;;;;;;5015206;28;20022;-50
2021/06/04 02:40:38;;;;;;;5.25;5.05;;;19.80;96.20;;;;;;5015014;28;20486;-51
2021/06/04 02:43:25;;;;;;;5.30;5.10;;;19.80;97.20;;;;;;5014975;28;20029;-50
2021/06/04 02:46:13;;;;;;;5.60;5.20;;;19.80;96.40;;;;;;5014980;28;20137;-53
2021/06/04 02:48:44;;;;;;;5.50;5.10;;;19.60;95.80;;;;;;5015006;28;20108;-53
2021/06/04 02:51:17;;;;;;;5.22;4.93;;;19.60;97.10;;;;;;5014902;28;20434;-52
2021/06/04 02:53:57;;;;;;;5.60;5.30;;;19.90;96.80;;;;;;5014818;28;20034;-50
2021/06/04 02:56:40;;;;;;;5.55;5.25;;;20.20;95.50;;;;;;5014874;28;20033;-49
2021/06/04 02:59:07;;;;;;;5.40;5.10;;;20.30;95.00;;;;;;5014589;28;20554;-52
2021/06/04 03:01:38;;;;;;;5.50;5.20;;;20.40;95.00;;;;;;5014709;28;20026;-48
2021/06/04 03:04:07;;;;;;;4.82;4.63;;;20.50;95.30;;;;;;5014391;28;20479;-49
2021/06/04 03:06:39;;;;;;;5.05;4.63;;;20.40;95.50;;;;;;5014523;28;20038;-50
2021/06/04 03:09:11;;;;;;;4.70;4.50;;;20.50;95.80;;;;;;4997003;28;20080;-48
2021/06/04 03:11:40;;;;;;;4.90;4.70;;;20.70;94.70;;;;;;5014991;28;20063;-51
2021/06/04 03:14:09;;;;;;;4.72;4.53;;;20.60;94.50;;;;;;5014510;28;20053;-50
2021/06/04 03:16:37;;;;;;;4.80;4.60;;;20.50;95.50;;;;;;5014482;28;20049;-51
2021/06/04 03:19:08;;;;;;;4.90;4.70;;;20.10;94.70;;;;;;5014395;28;20033;-49
2021/06/04 03:22:07;;;;;;;5.15;4.90;;;19.90;94.70;;;;;;5013225;28;20022;-49
2021/06/04 03:24:38;;;;;;;5.30;5.10;;;19.80;94.90;;;;;;5008966;28;20034;-49
2021/06/04 03:27:07;;;;;;;5.20;4.97;;;19.80;95.00;;;;;;5014512;28;20018;-52
2021/06/04 03:29:35;;;;;;;5.03;4.72;;;19.80;95.30;;;;;;5014162;28;20049;-50
2021/06/04 03:32:08;;;;;;;5.28;4.88;;;19.70;95.60;;;;;;5013909;28;20026;-49
2021/06/04 03:34:37;;;;;;;4.57;4.38;;;19.50;96.00;;;;;;5014098;28;20022;-50
2021/06/04 03:37:06;;;;;;;4.53;4.32;;;19.50;95.80;;;;;;5014061;28;20434;-48
2021/06/04 03:39:38;;;;;;;4.88;4.55;;;19.40;95.40;;;;;;5013918;28;20029;-52
2021/06/04 03:42:17;;;;;;;5.22;4.93;;;19.20;96.30;;;;;;5110833;27;20862;-53
2021/06/04 03:44:48;;;;;;;4.65;4.40;;;19.10;96.20;;;;;;5110826;28;20593;-54
2021/06/04 03:47:17;;;;;;;4.68;4.47;;;19.00;95.50;;;;;;5110700;28;20024;-53
2021/06/04 03:49:45;;;;;;;5.30;4.97;;;18.80;96.30;;;;;;5110628;28;20020;-53
2021/06/04 03:52:15;;;;;;;5.10;4.72;;;18.90;96.00;;;;;;5110621;28;20028;-53
2021/06/04 03:54:46;;;;;;;5.70;5.40;;;18.70;96.30;;;;;;5110883;28;20012;-52
2021/06/04 03:57:19;;;;;;;5.82;5.43;;;18.70;96.50;;;;;;5110958;28;20059;-53
2021/06/04 03:59:47;;;;;;;5.38;5.07;;;18.70;96.00;;;;;;5110411;28;20111;-54
2021/06/04 04:02:19;;;;;;;5.60;4.85;;;18.70;96.60;;;;;;5110744;28;20020;-53
2021/06/04 04:04:47;;;;;;;5.25;5.00;;;18.50;96.40;;;;;;5110533;28;20107;-50
2021/06/04 04:07:15;;;;;;;5.70;5.28;;;18.40;97.00;;;;;;5110419;28;20024;-51
2021/06/04 04:09:42;;;;;;;5.15;4.90;;;18.30;96.60;;;;;;5110362;28;20028;-52
2021/06/04 04:12:10;;;;;;;5.35;5.05;;;18.40;96.50;;;;;;5110393;28;20043;-50
2021/06/04 04:14:37;;;;;;;5.63;5.13;;;18.30;96.90;;;;;;5110302;28;20063;-50
2021/06/04 04:17:06;;;;;;;5.70;5.20;;;18.20;97.20;;;;;;5108823;28;20111;-50
2021/06/04 04:19:33;;;;;;;5.55;5.15;;;18.00;96.30;;;;;;5110114;28;20031;-52
2021/06/04 04:22:01;;;;;;;5.10;4.82;;;18.00;96.00;;;;;;5109851;28;20027;-50
2021/06/04 04:24:33;;;;;;;5.35;5.00;;;17.90;96.30;;;;;;5110283;28;20046;-48
2021/06/04 04:27:01;;;;;;;5.88;5.38;;;17.90;96.30;;;;;;5109800;28;20024;-50
2021/06/04 04:29:29;;;;;;;5.10;4.90;;;17.90;96.70;;;;;;5109723;28;20021;-54
2021/06/04 04:32:00;;;;;;;5.40;5.10;;;17.80;96.20;;;;;;5109891;28;20028;-51
2021/06/04 04:34:29;;;;;;;5.35;5.10;;;17.80;96.60;;;;;;5109807;28;20165;-48
2021/06/04 04:37:01;;;;;;;5.40;5.13;;;17.90;96.20;;;;;;5109717;28;20028;-51
2021/06/04 04:39:32;;;;;;;5.25;5.00;;;17.80;95.70;;;;;;5109725;28;20019;-49
2021/06/04 04:42:00;;;;;;;5.13;4.63;;;17.90;96.20;;;;;;5109530;28;20051;-53
2021/06/04 04:44:34;;;;;;;5.05;4.78;;;17.80;95.60;;;;;;5109544;28;20028;-53
2021/06/04 04:47:04;;;;;;;4.70;4.50;;;17.80;95.50;;;;;;5109896;28;20582;-54
2021/06/04 04:49:31;;;;;;;4.50;4.20;;;17.80;95.80;;;;;;5109470;28;20026;-52
2021/06/04 04:51:59;;;;;;;4.50;4.25;;;17.80;96.00;;;;;;5104998;28;20031;-50
2021/06/04 04:54:26;;;;;;;5.10;4.90;;;17.80;96.10;;;;;;5095906;28;20020;-52
2021/06/04 04:56:54;;;;;;;4.95;4.65;;;17.80;96.40;;;;;;5095831;28;20152;-53
2021/06/04 04:59:21;;;;;;;5.20;4.80;;;17.80;95.90;;;;;;5095708;28;20027;-49
2021/06/04 05:01:49;;;;;;;4.45;4.25;;;17.80;96.10;;;;;;5095676;28;20024;-48
2021/06/04 05:04:16;;;;;;;4.82;4.63;;;17.80;96.10;;;;;;5095725;28;20052;-53
2021/06/04 05:06:43;;;;;;;4.93;4.63;;;17.80;95.60;;;;;;5095701;28;20012;-48
2021/06/04 05:09:11;;;;;;;4.70;4.50;;;17.90;95.60;;;;;;5095606;28;20480;-52
2021/06/04 05:11:38;;;;;;;4.90;4.70;;;18.20;96.00;;;;;;5095549;28;20041;-51
2021/06/04 05:14:06;;;;;;;5.60;5.30;;;18.30;95.40;;;;;;5095491;28;20088;-48
2021/06/04 05:16:33;;;;;;;5.47;5.18;;;18.50;95.20;;;;;;5095341;28;20456;-50
2021/06/04 05:19:00;;;;;;;4.55;4.35;;;18.40;95.00;;;;;;5095290;28;20108;-53
2021/06/04 05:21:29;;;;;;;5.60;5.20;;;18.10;95.20;;;;;;5095223;28;20070;-46
2021/06/04 05:23:56;;;;;;;5.60;5.20;;;18.00;95.40;;;;;;5095205;28;20020;-52
2021/06/04 05:26:24;;;;;;;5.10;4.80;;;17.90;96.20;;;;;;5095186;28;20099;-53
2021/06/04 05:28:52;;;;;;;4.90;4.70;;;17.80;96.20;;;;;;5095328;28;20024;-51
2021/06/04 05:31:20;;;;;;;4.65;4.35;;;17.70;96.10;;;;;;5095094;28;20023;-53
2021/06/04 05:33:50;;;;;;;5.18;4.72;;;17.70;96.10;;;;;;5095242;28;20036;-52
2021/06/04 05:36:29;;;;;;;5.38;5.10;;;17.60;96.30;;;;;;5095099;28;20028;-53
2021/06/04 05:38:57;;;;;;;5.22;4.93;;;17.60;96.20;;;;;;5094994;28;20463;-51
2021/06/04 05:41:25;;;;;;;5.20;4.90;;;17.50;96.10;;;;;;5094789;28;20137;-50
2021/06/04 05:43:52;;;;;;;5.68;5.28;;;17.40;96.40;;;;;;5095011;28;20020;-53
2021/06/04 05:46:21;;;;;;;5.20;5.00;;;17.40;96.70;;;;;;5094859;28;20087;-53
2021/06/04 05:48:49;;;;;;;5.60;5.30;;;17.30;97.00;;;;;;5094744;28;20019;-53
2021/06/04 05:51:24;;;;;;;5.38;5.03;;;17.30;96.70;;;;;;5094798;28;20020;-49
2021/06/04 05:53:52;;;;;;;6.05;5.60;;;17.30;96.80;;;;;;5094772;28;20024;-52
2021/06/04 05:56:22;;;;;;;5.10;4.75;;;17.30;96.60;;;;;;5094715;28;20035;-51
2021/06/04 05:58:50;;;;;;;5.00;4.70;;;17.30;96.70;;;;;;5094561;28;20111;-52
2021/06/04 06:01:27;;;;;;;5.70;5.40;;;17.40;96.90;;;;;;5094519;28;20431;-53
2021/06/04 06:03:55;;;;;;;5.20;4.90;;;17.50;96.80;;;;;;5093559;28;20047;-51
2021/06/04 06:06:23;;;;;;;5.13;4.82;;;17.60;96.40;;;;;;5094493;28;20020;-52
2021/06/04 06:08:50;;;;;;;5.10;4.90;;;17.60;96.70;;;;;;5094656;28;20372;-52
2021/06/04 06:11:22;;;;;;;4.50;3.85;;;17.60;97.40;;;;;;5094622;28;20028;-53
2021/06/04 06:13:59;;;;;;;4.57;4.28;;;17.60;96.60;;;;;;5094354;28;20051;-51
2021/06/04 06:16:29;;;;;;;4.65;4.35;;;17.50;96.90;;;;;;5094641;28;20437;-53
2021/06/04 06:18:57;;;;;;;4.70;4.40;;;17.50;96.40;;;;;;5094093;28;20031;-54
2021/06/04 06:21:26;;;;;;;4.70;4.40;;;17.40;96.60;;;;;;5094170;28;20073;-48
2021/06/04 06:23:54;;;;;;;4.10;3.90;;;17.30;96.10;;;;;;5094057;28;20080;-52
2021/06/04 06:26:26;;;;;;;5.18;4.88;;;17.20;96.30;;;;;;5092708;28;20028;-53
2021/06/04 06:28:54;;;;;;;5.15;4.85;;;17.00;96.70;;;;;;5094002;28;20024;-51
2021/06/04 06:31:30;;;;;;;4.68;4.47;;;16.90;96.60;;;;;;5093911;28;20028;-53
2021/06/04 06:33:58;;;;;;;4.70;4.50;;;16.70;97.20;;;;;;5093885;28;20353;-52
2021/06/04 06:36:30;;;;;;;5.43;5.13;;;16.60;96.80;;;;;;5093877;28;20016;-51
2021/06/04 06:39:01;;;;;;;5.10;4.80;;;16.50;97.70;;;;;;5094040;28;20024;-54
2021/06/04 06:41:29;;;;;;;5.30;5.00;;;16.50;96.70;;;;;;5093588;28;20048;-48
2021/06/04 06:43:57;;;;;;;5.18;4.80;;;16.40;97.40;;;;;;5093767;28;20024;-51
2021/06/04 06:46:26;;;;;;;5.10;4.80;;;16.30;97.60;;;;;;5093722;28;20058;-51
2021/06/04 06:48:55;;;;;;;5.38;5.18;;;16.20;97.60;;;;;;5093694;28;20058;-52
2021/06/04 06:51:22;;;;;;;5.30;5.00;;;16.10;97.60;;;;;;5093577;28;20485;-51
2021/06/04 06:53:50;;;;;;;5.53;5.22;;;16.00;98.30;;;;;;5093659;28;20473;-50
2021/06/04 06:56:19;;;;;;;4.45;4.15;;;16.00;98.00;;;;;;5093630;28;20031;-56
2021/06/04 06:58:47;;;;;;;4.50;4.10;;;16.00;98.00;;;;;;5093766;28;20025;-54
2021/06/04 07:01:16;;;;;;;4.65;4.35;;;15.90;99.50;;;;;;5093500;28;20128;-54
2021/06/04 07:03:44;;;;;;;4.32;4.00;;;15.80;98.50;;;;;;5093390;28;20027;-53
2021/06/04 07:06:19;;;;;;;4.63;4.25;;;15.80;98.40;;;;;;5093435;28;20021;-53
2021/06/04 07:08:46;;;;;;;4.78;4.35;;;15.70;98.60;;;;;;5093425;28;20032;-52
2021/06/04 07:11:14;;;;;;;4.85;4.50;;;15.60;99.00;;;;;;5093450;28;20164;-52
2021/06/04 07:13:42;;;;;;;5.35;4.85;;;15.50;99.70;;;;;;5093363;28;20052;-51
2021/06/04 07:16:11;;;;;;;4.22;4.03;;;15.40;99.30;;;;;;5093104;28;20361;-52
2021/06/04 07:18:40;;;;;;;4.60;4.30;;;15.40;99.30;;;;;;5093290;28;20469;-53
2021/06/04 07:21:13;;;;;;;4.90;4.40;;;15.40;99.40;;;;;;5093129;28;20063;-53
2021/06/04 07:23:40;;;;;;;4.15;3.95;;;15.40;99.30;;;;;;5093435;28;20021;-51
2021/06/04 07:26:08;;;;;;;4.63;4.43;;;15.50;99.10;;;;;;5093215;28;20027;-54
2021/06/04 07:28:38;;;;;;;4.75;4.35;;;15.50;99.00;;;;;;5093084;28;20054;-53
2021/06/04 07:31:09;;;;;;;4.60;4.30;;;15.50;98.60;;;;;;5093112;28;20389;-53
2021/06/04 07:33:44;;;;;;;4.63;4.30;;;15.40;98.80;;;;;;5093155;28;20031;-49
2021/06/04 07:36:17;;;;;;;4.35;4.15;;;15.40;98.80;;;;;;5093049;28;20025;-54
2021/06/04 07:38:45;;;;;;;3.97;3.78;;;15.40;98.40;;;;;;5093030;28;20484;-58
2021/06/04 07:41:14;;;;;;;4.20;4.00;;;15.50;98.20;;;;;;5092917;28;20123;-54
2021/06/04 07:43:44;;;;;;;4.88;4.57;;;15.50;98.30;;;;;;5093165;28;20024;-55
2021/06/04 07:46:14;;;;;;;4.50;4.30;;;15.40;98.30;;;;;;5092901;28;20021;-55
2021/06/04 07:48:41;;;;;;;4.35;4.15;;;15.30;98.50;;;;;;5092958;28;20619;-52
2021/06/04 07:51:14;;;;;;;4.50;4.20;;;15.30;98.60;;;;;;5092980;28;20020;-55
2021/06/04 07:53:42;;;;;;;4.70;4.30;;;15.40;98.80;;;;;;5093006;28;20051;-55
2021/06/04 07:56:13;;;;;;;4.68;4.30;;;15.40;98.40;;;;;;5093011;28;20048;-56
2021/06/04 07:58:41;;;;;;;4.70;4.38;;;15.40;98.40;;;;;;5092603;28;20043;-51
2021/06/04 08:01:09;;;;;;;4.60;4.40;;;15.30;99.20;;;;;;5092852;28;20158;-54
2021/06/04 08:03:38;;;;;;;4.80;4.50;;;15.30;98.70;;;;;;5092980;28;20028;-55
2021/06/04 08:06:07;;;;;;;4.57;4.38;;;15.30;98.80;;;;;;5092901;28;20128;-53
2021/06/04 08:08:36;;;;;;;4.20;4.00;;;15.30;98.70;;;;;;5092694;28;20030;-55
2021/06/04 08:11:06;;;;;;;4.28;4.07;;;15.20;98.40;;;;;;5092725;28;20024;-53
2021/06/04 08:13:35;;;;;;;3.80;3.60;;;15.20;98.40;;;;;;5092863;28;20162;-58
2021/06/04 08:16:07;;;;;;;3.85;3.65;;;15.30;98.60;;;;;;5092734;28;20557;-57
2021/06/04 08:18:36;;;;;;;3.70;3.50;;;15.30;98.50;;;;;;5092620;28;20039;-52
2021/06/04 08:21:17;;;;;;;3.60;3.40;;;15.30;98.70;;;;;;5092538;28;20074;-54
2021/06/04 08:23:45;;;;;;;;;;;15.20;98.80;;;;;;5093061;28;20099;-52
2021/06/04 08:26:18;;;;;;;4.38;3.97;;;15.10;98.80;;;;;;5092693;28;20376;-56
2021/06/04 08:28:46;;;;;;;3.88;3.72;;;15.10;98.90;;;;;;5095987;28;20024;-54
2021/06/04 08:31:15;;;;;;;3.92;3.72;;;15.00;99.20;;;;;;5096484;28;20099;-55
2021/06/04 08:33:47;;;;;;;4.13;3.92;;;15.00;99.40;;;;;;5096431;28;20102;-54
2021/06/04 08:39:32;;;;;;;4.60;4.40;;;14.90;99.50;;;;;;5072981;28;20448;-53
2021/06/04 08:42:21;;;;;;;4.70;4.40;;;14.90;99.50;;;;;;5096144;28;20428;-56
2021/06/04 08:45:19;;;;;;;4.55;4.28;;;15.00;99.40;;;;;;5094928;28;20500;-52
2021/06/04 08:48:13;;;;;;;4.43;4.22;;;14.90;99.50;;;;;;5096091;28;20480;-55
2021/06/04 08:51:16;;;;;;;4.60;4.40;;;14.90;99.70;;;;;;5058211;28;20429;-53
2021/06/04 08:54:05;;;;;;;4.90;4.60;;;14.80;99.90;;;;;;5096431;28;20028;-53
2021/06/04 08:56:50;;;;;;;4.72;4.53;;;14.80;99.80;;;;;;5095981;28;20028;-56
2021/06/04 08:59:19;;;;;;;4.95;4.65;;;14.70;99.90;;;;;;5095822;28;20500;-56
2021/06/04 09:01:52;;;;;;;5.00;4.70;;;14.60;99.90;;;;;;5095839;28;20081;-57
2021/06/04 09:04:28;;;;;;;4.75;4.55;;;14.70;99.90;;;;;;5095953;28;20024;-53
2021/06/04 09:07:00;;;;;;;4.97;4.78;;;14.60;99.90;;;;;;5077708;28;20020;-55
2021/06/04 09:09:48;;;;;;;5.32;4.93;;;14.50;99.90;;;;;;5095753;28;20028;-54
2021/06/04 09:12:23;;;;;;;4.70;4.50;;;14.40;99.90;;;;;;5095677;28;20040;-51
2021/06/04 09:14:53;;;;;;;4.80;4.60;;;14.40;99.90;;;;;;5095567;28;20024;-54
2021/06/04 09:18:00;;;;;;;5.18;4.88;;;14.40;99.90;;;;;;5095532;28;20102;-55
2021/06/04 09:21:02;;;;;;;5.10;4.80;;;14.40;99.90;;;;;;5095440;28;20158;-54
2021/06/04 09:23:35;;;;;;;5.07;4.78;;;14.30;99.90;;;;;;5095453;28;20043;-54
2021/06/04 09:26:05;;;;;;;5.50;5.20;;;14.40;99.90;;;;;;5095471;28;20024;-53
2021/06/04 09:28:47;;;;;;;5.15;4.75;;;14.30;99.90;;;;;;5095473;28;20024;-55
2021/06/04 09:31:23;;;;;;;5.05;4.80;;;14.20;99.90;;;;;;5095407;28;20051;-54
2021/06/04 09:33:54;;;;;;;5.25;4.95;;;14.40;99.90;;;;;;5093803;28;20028;-53
2021/06/04 09:36:25;;;;;;;5.10;4.80;;;14.50;99.90;;;;;;5095071;28;20016;-51
2021/06/04 09:39:27;;;;;;;5.20;4.93;;;14.50;99.90;;;;;;5094922;28;20051;-52
2021/06/04 09:42:06;;;;;;;5.80;5.50;;;14.50;99.90;;;;;;5094802;28;20040;-49
2021/06/04 09:44:56;;;;;;;10.45;6.85;;;14.50;99.90;;;;;;5095103;28;20020;-51
2021/06/04 09:47:29;;;;;;;6.25;5.85;;;14.40;99.90;;;;;;5094854;28;20027;-52
2021/06/04 09:49:57;;;;;;;6.40;5.80;;;14.50;99.90;;;;;;5094854;28;20029;-53
2021/06/04 09:52:35;;;;;;;6.15;5.70;;;14.50;99.90;;;;;;5094744;28;20032;-51
2021/06/04 09:55:11;;;;;;;6.20;5.80;;;14.40;99.90;;;;;;5094792;28;20469;-50
2021/06/04 09:57:55;;;;;;;6.55;6.07;;;14.30;99.90;;;;;;5094570;28;20043;-49
2021/06/04 10:00:29;;;;;;;7.35;6.75;;;14.20;99.90;;;;;;5094380;28;20477;-53
2021/06/04 10:03:24;;;;;;;7.82;7.18;;;14.20;99.90;;;;;;5094753;28;20426;-48
2021/06/04 10:06:18;;;;;;;7.35;6.85;;;14.10;99.90;;;;;;5093227;28;20020;-52
2021/06/04 10:09:05;;;;;;;7.60;6.90;;;13.90;99.90;;;;;;5094431;28;20095;-46
2021/06/04 10:11:54;;;;;;;6.63;6.13;;;13.80;99.90;;;;;;5094442;28;20030;-49
2021/06/04 10:14:56;;;;;;;6.25;5.95;;;13.80;99.90;;;;;;5094498;28;20020;-49
2021/06/04 10:17:58;;;;;;;5.97;5.57;;;13.80;99.90;;;;;;5094252;28;20055;-46
2021/06/04 10:20:31;;;;;;;6.63;6.13;;;13.80;99.90;;;;;;5094034;28;20060;-51
2021/06/04 10:23:07;;;;;;;6.85;6.38;;;13.70;99.90;;;;;;5094203;28;20068;-49
2021/06/04 10:25:51;;;;;;;6.82;6.32;;;13.70;99.90;;;;;;5094082;28;20081;-50
2021/06/04 10:28:40;;;;;;;7.00;6.55;;;13.50;99.90;;;;;;5094273;28;20051;-49
2021/06/04 10:31:51;;;;;;;7.20;6.70;;;13.40;99.90;;;;;;5094168;28;20430;-48
2021/06/04 10:34:40;;;;;;;7.97;7.32;;;13.30;99.90;;;;;;5094117;28;20099;-51
2021/06/04 10:37:21;;;;;;;8.98;8.18;;;13.30;99.90;;;;;;5094145;28;20103;-51
2021/06/04 10:39:55;;;;;;;10.15;9.23;;;13.30;99.90;;;;;;5093789;28;20472;-52
2021/06/04 10:42:37;;;;;;;10.88;9.90;;;13.20;99.90;;;;;;5093866;28;20016;-53
2021/06/04 10:45:41;;;;;;;10.57;9.68;;;13.10;99.90;;;;;;5093881;28;20034;-49
2021/06/04 10:48:44;;;;;;;10.35;9.65;;;13.10;99.90;;;;;;5051818;28;20388;-50
2021/06/04 10:51:48;;;;;;;9.55;8.95;;;13.20;99.90;;;;;;5093326;28;20095;-55
2021/06/04 10:54:24;;;;;;;9.20;8.60;;;13.30;99.90;;;;;;5093865;28;20017;-57
2021/06/04 10:57:14;;;;;;;9.18;8.50;;;13.30;99.90;;;;;;5093837;28;20093;-55
2021/06/04 10:59:41;;;;;;;7.38;6.97;;;13.40;99.90;;;;;;5092301;28;20043;-55
2021/06/04 11:02:24;;;;;;;7.03;6.63;;;13.50;99.90;;;;;;5093761;28;20031;-55
2021/06/04 11:05:15;;;;;;;7.10;6.60;;;13.50;99.90;;;;;;5093513;28;20391;-55
2021/06/04 11:08:05;;;;;;;6.90;6.50;;;13.60;99.90;;;;;;5093583;28;20024;-51
2021/06/04 11:10:47;;;;;;;7.07;6.47;;;13.70;99.90;;;;;;5093623;28;20023;-51
2021/06/04 11:13:37;;;;;;;7.15;6.75;;;13.70;99.90;;;;;;5093511;28;20035;-53
2021/06/04 11:16:18;;;;;;;9.15;8.40;;;13.70;99.90;;;;;;5083254;28;20040;-51
2021/06/04 11:19:10;;;;;;;8.10;7.60;;;13.60;99.90;;;;;;5093314;28;20043;-55
2021/06/04 11:22:02;;;;;;;8.32;7.82;;;13.60;99.90;;;;;;5093255;28;20085;-56
2021/06/04 11:24:49;;;;;;;10.02;9.23;;;13.60;99.90;;;;;;5093296;28;20023;-55
2021/06/04 11:27:45;;;;;;;9.90;9.10;;;13.50;99.90;;;;;;5093405;28;20024;-53
2021/06/04 11:30:26;;;;;;;9.40;8.70;;;13.50;99.90;;;;;;5092876;28;20060;-54
2021/06/04 11:33:02;;;;;;;;;;;13.60;99.90;;;;;;5093740;28;20022;-52
2021/06/04 11:35:33;;;;;;;8.25;7.85;;;13.60;99.90;;;;;;5092919;28;20390;-52
2021/06/04 11:38:17;;;;;;;;;;;13.60;99.90;;;;;;5093455;28;20047;-51
2021/06/04 11:40:51;;;;;;;7.38;6.95;;;13.60;99.90;;;;;;5092779;28;19965;-51
2021/06/04 11:43:31;;;;;;;7.25;6.75;;;13.60;99.90;;;;;;5093325;28;20031;-52
2021/06/04 11:46:18;;;;;;;6.65;6.35;;;13.70;99.90;;;;;;5092983;28;20020;-55
2021/06/04 11:48:55;;;;;;;6.80;6.40;;;13.70;99.90;;;;;;5092928;28;20024;-52
2021/06/04 11:51:28;;;;;;;6.30;5.95;;;13.70;99.90;;;;;;5092948;28;20047;-50
2021/06/04 11:54:15;;;;;;;6.50;6.10;;;13.70;99.90;;;;;;5092872;28;20034;-53
2021/06/04 11:57:11;;;;;;;6.05;5.75;;;13.70;99.90;;;;;;5079146;28;20047;-49
2021/06/04 11:59:48;;;;;;;5.95;5.60;;;13.70;99.90;;;;;;5092705;28;20017;-53
2021/06/04 12:02:36;;;;;;;5.13;4.93;;;13.60;99.90;;;;;;5093740;28;20503;-52
2021/06/04 12:05:09;;;;;;;5.40;5.20;;;13.70;99.90;;;;;;5096900;28;20022;-53
2021/06/04 12:08:05;;;;;;;5.50;5.30;;;13.80;99.90;;;;;;5097215;28;20016;-49
2021/06/04 12:10:50;;;;;;;5.20;5.00;;;13.70;99.90;;;;;;5096858;28;20035;-51
2021/06/04 12:13:41;;;;;;;5.20;5.00;;;13.70;99.90;;;;;;5096947;28;20024;-52
2021/06/04 12:16:26;;;;;;;5.20;5.00;;;13.70;99.90;;;;;;5096734;28;20369;-49
2021/06/04 12:19:22;;;;;;;5.22;4.90;;;13.70;99.90;;;;;;5096564;28;20081;-50
2021/06/04 12:21:51;;;;;;;5.20;5.00;;;13.80;99.90;;;;;;5096639;28;20020;-53
2021/06/04 12:24:18;;;;;;;4.80;4.60;;;13.80;99.90;;;;;;5096540;28;20043;-52
2021/06/04 12:26:48;;;;;;;4.90;4.70;;;13.80;99.90;;;;;;5096747;28;20047;-50
2021/06/04 12:29:22;;;;;;;5.10;4.90;;;13.80;99.90;;;;;;5096880;28;20422;-53
2021/06/04 12:32:07;;;;;;;5.15;4.95;;;13.80;99.90;;;;;;5096634;28;20524;-53
2021/06/04 12:34:37;;;;;;;5.03;4.80;;;13.80;99.90;;;;;;5096396;28;20066;-55
2021/06/04 12:37:23;;;;;;;4.82;4.63;;;13.70;99.90;;;;;;5096290;28;20156;-52
2021/06/04 12:40:20;;;;;;;5.10;4.90;;;13.80;99.90;;;;;;5096305;28;20066;-55
2021/06/04 12:42:57;;;;;;;4.95;4.75;;;13.80;99.90;;;;;;5082014;28;20493;-54
2021/06/04 12:45:37;;;;;;;5.50;5.20;;;13.70;99.90;;;;;;5096274;28;20028;-52
2021/06/04 12:48:24;;;;;;;5.07;4.83;;;13.70;99.90;;;;;;5096225;28;20050;-53
2021/06/04 12:50:58;;;;;;;5.47;5.22;;;13.70;99.90;;;;;;5096185;28;20021;-51
2021/06/04 12:53:28;;;;;;;6.10;5.80;;;13.70;99.90;;;;;;5096073;28;20020;-53
2021/06/04 12:56:19;;;;;;;6.20;5.82;;;13.70;99.90;;;;;;5095047;28;20330;-53
2021/06/04 12:59:14;;;;;;;5.85;5.45;;;13.70;99.90;;;;;;5095901;28;20028;-55
2021/06/04 13:02:06;;;;;;;6.30;6.10;;;13.60;99.90;;;;;;5095633;28;20064;-52
2021/06/04 13:04:43;;;;;;;6.18;5.88;;;13.60;99.90;;;;;;5095945;28;20095;-53
2021/06/04 13:07:19;;;;;;;5.93;5.70;;;13.50;99.90;;;;;;5095928;28;20034;-51
2021/06/04 13:10:11;;;;;;;6.18;5.80;;;13.50;99.90;;;;;;5095885;28;20047;-51
2021/06/04 13:12:40;;;;;;;6.10;5.70;;;13.50;99.90;;;;;;5095336;28;20016;-50
2021/06/04 13:15:28;;;;;;;6.05;5.75;;;13.50;99.90;;;;;;5095975;28;20433;-49
2021/06/04 13:17:59;;;;;;;5.97;5.68;;;13.40;99.90;;;;;;5095687;28;20012;-52
2021/06/04 13:20:32;;;;;;;5.97;5.68;;;13.40;99.90;;;;;;5095523;28;20163;-52
2021/06/04 13:23:09;;;;;;;5.63;5.40;;;13.50;99.90;;;;;;5095746;28;20453;-50
2021/06/04 13:25:37;;;;;;;5.95;5.63;;;13.40;99.90;;;;;;5095513;28;20031;-50
2021/06/04 13:28:06;;;;;;;6.43;6.00;;;13.50;99.90;;;;;;5095640;28;20030;-48
2021/06/04 13:30:39;;;;;;;6.35;6.05;;;13.40;99.90;;;;;;5095565;28;20573;-50
2021/06/04 13:33:11;;;;;;;6.10;5.72;;;13.40;99.90;;;;;;5095589;28;20580;-53